首页
METAR-TAF:

METAR-TAF

机场 :

威尼斯-泰塞拉机场

威尼斯, 意大利

纬度: 45-30N, 经度: 012-20E, 海拔: 2米

当前天气观测

该预报发布于20分钟前的08:20 UTC
风速4节,风向东北
温度 7°C
湿度 100%
气压 1026 hPa
能見度: 0600
阴天层高于200英尺

METAR: LIPZ 170820Z 04004KT 0600 R04R/P1500N FG OVC002 07/07 Q1026 NOSIG

时间: 09:40 (08:40 UTC)

预报

该预报发布于31分钟前的08:09 UTC
预报有效从17日的 08点(UTC)到 18日的 12点(UTC)
风速5节,风向多变
能見度: 0800
阴天层高于200英尺
短暂存在
从 17日的 13点(UTC)到 17日的 17点(UTC)
能見度: 2000
阴天层高于1000英尺
成为
从 18日的 08点(UTC)到 18日的 11点(UTC)
能見度: 7000
多云层高于2000英尺

TAF: LIPZ 170809Z 1708/1812 VRB05KT 0800 FG OVC002 TEMPO 1713/1717 2000 OVC010 BECMG 1808/1811 7000 BKN020

超过4000个机场的气象观测和天气预报(METAR&TAF报告)。

可查询的气象台以黄色和红色小点在地图上表示。

将鼠标移到小点上方,可查看气象台名称。

然后点击查看天气观测和预报。

如需切换地图:点击带黑十字的绿色按钮放大地图;点击带横线的绿色按钮缩小地图;或者点击绿色箭头查看邻近地区的地图。


METAR-TAF: